KPYX

Perryton Ochiltree County Airport

Perryton, Texas, USA
METAR KPYX 140835Z AUTO 35013KT 10SM CLR M02/M09 A3022 RMK AO2 T10171088
Observed Flight Rules
Dec-14 @ 08:35 UTC (24 minutes ago) Visual Flight Rules
Wind Visibility Clouds
350° at 13 knots 10 miles
  • Clear skies
Temperatures Readings
Current -2°C / 28°F
Dewpoint -9°C / 16°F
Humidity 59%
Altimeter 30.22" Hg
Pressure 1023 hPa
Elevation 889
METAR KPYX 140835Z AUTO 35013KT 10SM CLR M02/M09 A3022 RMK AO2 T10171088
Observed Flight Rules
Dec-14 @ 08:35 UTC
(24 minutes ago)
VFR
Wind Visibility
350° at 13 knots 10 miles
Clouds
  • Clear skies
Temperature Dewpoint
-2°C / 28°F -9°C / 16°F
Humidity Altimeter Pressure
59% 30.22" Hg 1023 hPa